Aérodrome :
LOGIN :

S'inscrire | Disclaimer

   EN    FR    IT 

 










Légende :    VFR   VFR Marginal   IFR   IFR Intensif   IFR Très Intensif
Visi : 
Plafond : 
>= 8 km
>= 3000ft
5 à 8 km
1000 à 3000 ft
1500m à 5 km
500 à 1000 ft
800 à 1500m
200 à 500 ft
< 800m
< 200 ft
Symboles :   Orages  Brouillard  Fortes neiges  Fortes précipitations  Vent > 20 kt
SIGMETs :   Divers  Orages  Givrage  Turbulence  Onde Orograph.  Cendres Volcan.






- Altitude de l'aérodrome : 39 ft
- Code IATA : SUF


LICA - Lamezia Terme

DERNIER METAR :
  • 090020Z AUTO 06012KT 9999 BKN120/// 11/05 Q1011

METARs EXPIRÉS :
  • 082350Z AUTO 06011KT 9999 BKN120/// BKN150/// 11/05 Q1011
  • 082320Z AUTO 06011KT 9999 OVC120/// 11/05 Q1011
  • 082250Z AUTO 06010KT 9999 OVC130/// 11/05 Q1012
  • 082220Z AUTO 06009KT 9999 BKN150/// 11/05 Q1012
  • 082150Z AUTO 06010KT 9999 SCT140/// BKN160/// 11/05 Q1012
  • 082120Z AUTO 06009KT 9999 OVC150/// 11/05 Q1013
  • 082050Z AUTO 07009KT 9999 OVC150/// 11/05 Q1013
  • 082020Z AUTO 07010KT 9999 BKN140/// 11/05 Q1013

TAF TAF LICA
Valide du 09 à 00h jusqu'au 10 à 00h UTC


082300Z 0900/0924 07015KT 9999 FEW030
TEMPO 0900/0904 07018G28KT



MET'MAP, la Météo Aéronautique d'un coup d'oeil ! - Copyright ORBIFLY Décembre 2007 - Disclaimer

ORBIFLY MET'MAP TEAM :

Programmation & Développement : Alexandra Zaïnal
Sur une idée originale de : Baudouin d'Aumeries
Soutien technique & logistique : Manuel Goepfert
Assistance : Marc-Olivier Méhu




SOURCES & CREDITS :

   NOAA